Řízení letového provozu České republiky  
Aktualizace dat:  04.09.2015 23:02:07 UTC English version
   METEO Zobrazení stránky:  04.09.2015 23:03:40 UTC  
vysvětlivky
METAR EDDB 042250Z 20007KT CAVOK 13/07 Q1011 NOSIG=
METAR EDDC 042250Z 22006KT CAVOK 11/07 Q1013=
METAR EDDE 042250Z 22010KT CAVOK 10/05 Q1013 NOSIG=
METAR EDDF 042250Z 00000KT CAVOK 10/07 Q1015 NOSIG=
METAR EDDM 042250Z 33003KT 9999 FEW045 SCT070 BKN080 14/11 Q1015 NOSIG=
METAR EDDN 042250Z 01001KT CAVOK 09/05 Q1016=
METAR EDDP 042250Z 21008KT CAVOK 11/07 Q1012 NOSIG=
METAR EDDT 042250Z 22007KT CAVOK 14/07 Q1010=
METAR EDQM 041750Z 22004KT CAVOK 12/04 Q1015=
METAR EPBY 042230Z VRB01KT 4000 BR NSC 10/09 Q1012 =
METAR EPGD 042230Z 24004KT 200V280 CAVOK 10/09 Q1010 =
METAR EPKK 042230Z VRB02KT CAVOK 10/09 Q1014 =
METAR EPKT 042230Z 15008KT 8000 NSC 13/11 Q1014 =
METAR EPLL 042230Z VRB01KT 8000 -SHRA FEW009 SCT017CB BKN049 13/12 Q1013 RESHRA =
METAR EPPO 042230Z 22006KT CAVOK 14/08 Q1012 =
METAR EPRZ 042230Z 10001KT CAVOK 11/10 Q1015 =
METAR EPWA 042230Z 18002KT 9999 MIFG NSC 10/10 Q1013 BECMG 5000 BR=
METAR EPWR 042230Z 26002KT 9999 MIFG NSC 11/09 Q1014 =
METAR LHBP 042230Z VRB02KT 9999 -SHRA SCT012 BKN030 BKN090 18/13 Q1014 NOSIG=
METAR LHSM 041545Z 08002KT CAVOK 24/11 Q1015 NOSIG=
METAR LKCV 042200Z 15002KT CAVOK 14/08 Q1014 NOSIG=
METAR LKKB 042200Z 21003KT CAVOK 13/07 Q1014=
METAR LKKU NIL
METAR LKKV 042300Z VRB02KT CAVOK 06/05 Q1015 RMK REG QNH 1011=
METAR LKLN 042200Z AUTO 00000KT //// ////// 11/07 Q1015=
METAR LKMT 042300Z 17004KT 140V200 CAVOK 14/10 Q1014 NOSIG RMK REG QNH 1011=
METAR LKNA 042200Z VRB01KT CAVOK 15/11 Q1015=
METAR LKPD 042200Z 18002KT CAVOK 12/08 Q1014=
METAR LKPR 042300Z 22006KT CAVOK 11/06 Q1014 NOSIG RMK REG QNH 1011=
METAR LKTB 042300Z 03004KT CAVOK 14/11 Q1014 NOSIG RMK REG QNH 1011=
METAR LKVO NIL
METAR LOWI 042250Z AUTO 26004KT 9999 FEW048 BKN050 13/12 Q1015=
METAR LOWL 042250Z AUTO 30006KT 9999 -RA FEW050 BKN060 15/13 Q1015=
METAR LOWS 042250Z AUTO 18003KT 9999 FEW042 BKN050 15/13 Q1015=
METAR LOWW 042250Z 18005KT 9999 FEW045 BKN110 16/14 Q1014 NOSIG=
METAR LZIB 042230Z VRB02KT 9999 -RA FEW043 BKN070 17/12 Q1014 NOSIG=
METAR LZKZ 042230Z 04006KT CAVOK 17/12 Q1014=
METAR LZPP 042230Z AUTO 36005KT 9999 OVC110/// 15/12 Q1014=
METAR LZSL 042230Z VRB02KT CAVOK 14/10 Q1015=
METAR LZTT 042230Z 26003KT CAVOK 12/10 Q1016=
METAR LZZI 042230Z VRB01KT CAVOK 11/09 Q1015=